Detalii statie ROAGROLTAL [00001D0B]

Toti senzorii

Date Temperatura solului [C]Precipitatii [mm]Voltaj baterie [mV]Leaf Wetness [Min]HC Air temperature [C]HC Relative humidity [%]Punctul de roua [C]
medieminmaxsumaultimatimpmedieminmaxmediemediemin
2019-08-15 20:00:00 29.5 29.3 29.8 0 7070 20.73 20.22 21.29 62.25 13 12.9
2019-08-15 21:00:00 29 28.8 29.3 0 7000 19.42 18.71 20.11 66.24 12.8 12.6
2019-08-15 22:00:00 28.6 28.4 28.9 0 6932 18.48 18.23 18.69 69.07 12.5 12.4
2019-08-15 23:00:00 28.1 27.9 28.4 0 6904 17.79 17.61 18.14 70.98 12.3 12.2
2019-08-16 00:00:00 27.7 27.5 27.8 0 6834 17.66 17.51 17.84 71.33 12.2 12.2
2019-08-16 01:00:00 27.3 27.2 27.6 0 6806 17.66 17.53 17.74 71.76 12.3 12.1
2019-08-16 02:00:00 27.1 27 27.3 0 6796 17.61 17.5 17.74 71.31 12.2 12.1
2019-08-16 03:00:00 26.8 26.7 27 0 6786 17.73 17.68 17.76 71.49 12.3 12.3
2019-08-16 04:00:00 26.5 26.4 26.7 0 6796 17.67 17.64 17.72 71.82 12.3 12.3
2019-08-16 05:00:00 26.4 26.3 26.6 0 6806 17.55 17.46 17.63 71.2 12.1 11.9
2019-08-16 06:00:00 26.2 26.1 26.3 0 6786 17.38 17.27 17.48 70.98 11.9 11.8
2019-08-16 07:00:00 26 26 26.2 0 6942 17.75 17.31 18.58 67.79 11.6 11.4
2019-08-16 08:00:00 25.9 25.8 26 0 7088 18.86 18.59 19.38 62.12 11.3 11.2
2019-08-16 09:00:00 25.9 25.8 26 0 7246 20.38 19.61 20.94 57.12 11.4 11
2019-08-16 10:00:00 26 26 26.2 0 7246 20.92 20.62 21.42 53.27 10.8 10.4
2019-08-16 11:00:00 26.3 26.2 26.6 0 7236 22.16 21.04 24.58 49.01 10.7 10.3
2019-08-16 12:00:00 26.7 26.4 27 0 7236 25.39 24.66 26.4 42.05 11.3 10.9
2019-08-16 13:00:00 27.5 27 28 0 7236 26.2 25.51 27.14 40.11 11.2 10.7
2019-08-16 14:00:00 28.4 28 28.8 0 7226 27.25 25.7 29.41 37.66 11.3 10.7
2019-08-16 15:00:00 29.2 28.9 29.8 0 7236 27.93 26.97 29.13 37.09 11.6 11
2019-08-16 16:00:00 29.9 29.7 30.2 0 7226 27.65 26.52 28.5 37.64 11.7 10.8
2019-08-16 17:00:00 30.2 30.1 30.4 0 7236 26.98 25.8 28.31 39.39 11.7 11.3
2019-08-16 18:00:00 30.2 30 30.4 0 7206 25.19 24.52 26.05 43.57 11.6 11.3
2019-08-16 19:00:00 29.9 29.6 30.1 0 7138 23.15 22.08 24.29 50.86 12.2 11.9
2019-08-16 20:00:00 29.4 29.2 29.6 0 7050 20.91 19.95 21.91 58.95 12.4 12.1
2019-08-16 21:00:00 28.9 28.7 29.2 0 6962 18.99 18.13 20.05 64.41 11.9 11.8
2019-08-16 22:00:00 28.4 28.2 28.7 0 6904 18.14 17.66 18.43 67.95 11.9 11.7
2019-08-16 23:00:00 27.9 27.8 28.1 0 6874 17.71 17.11 18.56 71.61 12.3 12.2
2019-08-17 00:00:00 27.5 27.2 27.7 0 6844 19.03 18.88 19.14 69.64 13.2 12.5
2019-08-17 01:00:00 27.2 27 27.4 0 6816 18.85 18.63 19.06 75.2 14.2 13.9
2019-08-17 02:00:00 27 26.8 27.2 0 6806 18.78 18.7 18.91 72.23 13.5 13.3
2019-08-17 03:00:00 26.7 26.6 26.9 0 6786 17.99 17.12 18.91 77.09 13.7 12.9
2019-08-17 04:00:00 26.5 26.4 26.6 0 6796 16.55 15.68 17.27 86.06 14 13.7
2019-08-17 05:00:00 26.3 26.2 26.4 0 6806 15.94 15.57 16.55 87.17 13.6 13.3
2019-08-17 06:00:00 26 26 26.2 0 6806 15.09 14.56 16.51 91.24 13.5 13.1
2019-08-17 07:00:00 25.8 25.7 26 0 7128 19.88 17.56 21.43 66.65 13.3 12.8
2019-08-17 08:00:00 25.7 25.6 26 0 7246 21.16 20.74 21.67 58.72 12.5 12
2019-08-17 09:00:00 25.8 25.7 26 0 7246 22.53 21.62 24.06 52.44 12.1 11.5
2019-08-17 10:00:00 26.1 26 26.3 0 7236 25.33 24.57 26.66 42.54 11.4 10.4
2019-08-17 11:00:00 26.6 26.3 27 0 7236 26.87 26.08 27.78 35.55 10.1 9.5
2019-08-17 12:00:00 27.4 27 27.9 0 7236 27.66 26.93 28.21 33.57 9.9 9.3
2019-08-17 13:00:00 28.2 28 28.6 0 7236 28.3 27.29 29.7 32.82 10 9.3
2019-08-17 14:00:00 29 28.7 29.5 0 7226 28.96 27.66 30.2 31.5 10.1 9.6
2019-08-17 15:00:00 29.7 29.5 30 0 7226 28.42 27.5 29.82 32.62 10.2 9.3
2019-08-17 16:00:00 30.1 30.1 30.4 0 7226 28.31 27.35 29.16 33.09 10.2 9.7
2019-08-17 17:00:00 30.4 30.2 30.5 0 7236 27.42 26.69 28.52 34.53 10.1 9.6
2019-08-17 18:00:00 30.3 30.2 30.5 0 7226 26.5 25.73 27.33 37.23 10.4 10.1